Time;durP1;ratioP1;P1;durP2;ratioP2;P2;SDS_P1;SDS_P2;PMS_P1;PMS_P2;Temp;Humidity;BMP_temperature;BMP_pressure;BME280_temperature;BME280_humidity;BME280_pressure;Samples;Min_cycle;Max_cycle;Signal;HPM_P1;HPM_P2
2024/04/08 00:04:46;;;;;;;3.15;1.00;;;;;;;;;;10225844;28;20059;-75
2024/04/08 00:09:50;;;;;;;8.50;1.08;;;;;;;;;;10218446;28;20090;-75
2024/04/08 00:14:53;;;;;;;2.85;0.90;;;;;;;;;;10227746;28;20602;-75
2024/04/08 00:19:57;;;;;;;5.05;1.33;;;;;;;;;;10215498;29;20055;-75
2024/04/08 00:25:00;;;;;;;3.08;1.40;;;;;;;;;;10232584;28;20150;-75
2024/04/08 00:30:04;;;;;;;2.22;0.88;;;;;;;;;;10227662;28;20487;-74
2024/04/08 00:35:06;;;;;;;3.13;0.98;;;;;;;;;;10239062;28;20605;-74
2024/04/08 00:40:11;;;;;;;1.92;0.80;;;;;;;;;;10225163;28;20050;-75
2024/04/08 00:45:13;;;;;;;3.45;0.95;;;;;;;;;;10224897;28;20595;-75
2024/04/08 00:50:16;;;;;;;1.52;0.75;;;;;;;;;;10228976;28;20187;-75
2024/04/08 00:55:20;;;;;;;2.15;0.70;;;;;;;;;;10223549;29;20483;-75
2024/04/08 01:00:22;;;;;;;1.83;0.82;;;;;;;;;;10222226;29;20046;-75
2024/04/08 01:05:25;;;;;;;3.72;1.10;;;;;;;;;;10227144;29;20489;-75
2024/04/08 01:10:29;;;;;;;2.05;0.85;;;;;;;;;;10222357;29;20134;-75
2024/04/08 01:15:32;;;;;;;0.93;0.75;;;;;;;;;;10226000;29;20094;-75
2024/04/08 01:20:35;;;;;;;2.85;0.80;;;;;;;;;;10237875;28;20066;-75
2024/04/08 01:25:38;;;;;;;3.30;1.13;;;;;;;;;;10229255;29;20498;-75
2024/04/08 01:30:42;;;;;;;3.80;0.95;;;;;;;;;;10225604;29;20138;-75
2024/04/08 01:35:44;;;;;;;1.33;0.65;;;;;;;;;;10221936;29;20058;-75
2024/04/08 01:40:48;;;;;;;3.40;1.10;;;;;;;;;;10229432;28;20052;-75
2024/04/08 01:45:52;;;;;;;4.22;1.00;;;;;;;;;;10216133;28;20106;-75
2024/04/08 01:50:54;;;;;;;2.65;1.10;;;;;;;;;;10182151;28;20142;-76
2024/04/08 01:55:58;;;;;;;3.47;0.80;;;;;;;;;;10186223;29;20486;-75
2024/04/08 02:01:00;;;;;;;5.78;1.35;;;;;;;;;;10179701;29;20753;-76
2024/04/08 02:06:03;;;;;;;4.20;0.88;;;;;;;;;;10182920;29;20048;-75
2024/04/08 02:11:07;;;;;;;2.47;0.80;;;;;;;;;;10181411;29;20048;-75
2024/04/08 02:16:10;;;;;;;5.40;1.40;;;;;;;;;;10185470;29;20091;-75
2024/04/08 02:21:12;;;;;;;2.10;0.95;;;;;;;;;;10186463;29;20138;-75
2024/04/08 02:26:16;;;;;;;2.15;0.70;;;;;;;;;;10183965;29;20504;-75
2024/04/08 02:31:18;;;;;;;2.00;1.17;;;;;;;;;;10179389;29;20043;-75
2024/04/08 02:36:20;;;;;;;3.42;0.90;;;;;;;;;;10169772;29;20063;-75
2024/04/08 02:41:24;;;;;;;3.10;1.15;;;;;;;;;;10180506;29;20052;-75
2024/04/08 02:46:26;;;;;;;4.22;1.17;;;;;;;;;;10185789;29;20051;-75
2024/04/08 02:51:29;;;;;;;2.13;1.02;;;;;;;;;;10179460;29;20040;-75
2024/04/08 02:56:35;;;;;;;4.53;1.20;;;;;;;;;;10171481;29;20494;-75
2024/04/08 03:01:39;;;;;;;2.25;1.30;;;;;;;;;;10175200;29;20059;-75
2024/04/08 03:06:41;;;;;;;2.22;0.98;;;;;;;;;;10183765;29;20056;-75
2024/04/08 03:11:45;;;;;;;3.08;1.10;;;;;;;;;;10162377;29;20063;-75
2024/04/08 03:16:47;;;;;;;3.30;1.02;;;;;;;;;;10161957;29;20063;-75
2024/04/08 03:21:50;;;;;;;2.83;1.17;;;;;;;;;;10166196;28;20063;-75
2024/04/08 03:26:53;;;;;;;3.25;1.42;;;;;;;;;;10184316;29;20059;-75
2024/04/08 03:31:56;;;;;;;2.97;1.13;;;;;;;;;;10172314;29;20048;-76
2024/04/08 03:36:58;;;;;;;2.30;1.00;;;;;;;;;;10190747;29;20040;-75
2024/04/08 03:42:02;;;;;;;1.95;1.13;;;;;;;;;;10188882;29;20052;-75
2024/04/08 03:47:05;;;;;;;2.53;0.90;;;;;;;;;;10191857;29;20051;-75
2024/04/08 03:52:07;;;;;;;2.05;1.02;;;;;;;;;;10180666;29;20043;-75
2024/04/08 03:57:11;;;;;;;1.90;0.85;;;;;;;;;;10175316;29;20047;-75
2024/04/08 04:02:14;;;;;;;3.92;1.30;;;;;;;;;;10183151;29;20467;-75
2024/04/08 04:07:16;;;;;;;1.70;0.90;;;;;;;;;;10187601;29;20055;-75
2024/04/08 04:12:20;;;;;;;5.53;1.40;;;;;;;;;;10187519;29;20048;-75
2024/04/08 04:17:22;;;;;;;2.00;0.90;;;;;;;;;;10182598;29;20059;-75
2024/04/08 04:22:25;;;;;;;2.92;1.38;;;;;;;;;;10171413;29;20054;-75
2024/04/08 04:27:28;;;;;;;1.48;1.00;;;;;;;;;;10181450;29;20613;-74
2024/04/08 04:32:30;;;;;;;2.85;0.90;;;;;;;;;;10188574;29;20044;-75
2024/04/08 04:37:33;;;;;;;2.38;1.10;;;;;;;;;;10183256;29;20159;-75
2024/04/08 04:42:37;;;;;;;1.65;0.95;;;;;;;;;;10188320;29;20274;-74
2024/04/08 04:47:39;;;;;;;3.85;1.00;;;;;;;;;;10185925;28;20078;-75
2024/04/08 04:52:41;;;;;;;1.83;0.90;;;;;;;;;;10172067;29;20055;-75
2024/04/08 04:57:45;;;;;;;3.30;1.17;;;;;;;;;;10212281;28;20537;-75
2024/04/08 05:02:47;;;;;;;1.95;1.17;;;;;;;;;;10233390;28;20701;-75
2024/04/08 05:07:50;;;;;;;3.20;1.40;;;;;;;;;;10237204;28;20546;-75
2024/04/08 05:12:53;;;;;;;1.83;1.20;;;;;;;;;;10233534;28;20055;-75
2024/04/08 05:17:55;;;;;;;2.60;1.27;;;;;;;;;;10212093;28;20047;-74
2024/04/08 05:22:58;;;;;;;6.32;1.40;;;;;;;;;;10213092;28;20043;-76
2024/04/08 05:28:02;;;;;;;3.35;1.48;;;;;;;;;;10183613;28;20047;-75
2024/04/08 05:33:05;;;;;;;2.70;1.80;;;;;;;;;;10190650;29;20054;-75
2024/04/08 05:38:07;;;;;;;4.55;1.88;;;;;;;;;;10207781;29;20047;-75
2024/04/08 05:43:14;;;;;;;2.03;1.23;;;;;;;;;;10187053;29;20040;-75
2024/04/08 05:48:17;;;;;;;7.20;1.30;;;;;;;;;;10192846;29;20503;-75
2024/04/08 05:53:20;;;;;;;4.35;1.50;;;;;;;;;;10177490;29;20048;-75
2024/04/08 05:58:24;;;;;;;2.17;1.30;;;;;;;;;;10195658;28;20051;-75
2024/04/08 06:03:26;;;;;;;2.58;1.60;;;;;;;;;;10184387;28;20059;-75
2024/04/08 06:08:28;;;;;;;1.85;1.10;;;;;;;;;;10181063;29;20054;-75
2024/04/08 06:13:32;;;;;;;3.10;2.20;;;;;;;;;;10171510;29;20063;-75
2024/04/08 06:18:34;;;;;;;4.30;2.38;;;;;;;;;;10179623;29;20052;-75
2024/04/08 06:23:37;;;;;;;3.58;1.90;;;;;;;;;;10187111;28;20055;-75
2024/04/08 06:28:40;;;;;;;3.22;1.75;;;;;;;;;;10197111;29;20067;-76
2024/04/08 06:33:43;;;;;;;3.13;1.60;;;;;;;;;;10213946;28;20082;-75
2024/04/08 06:38:45;;;;;;;4.30;1.60;;;;;;;;;;10229734;28;20523;-75
2024/04/08 06:43:49;;;;;;;3.28;1.30;;;;;;;;;;10237173;28;20047;-75
2024/04/08 06:48:51;;;;;;;1.98;1.33;;;;;;;;;;10208192;28;20051;-75
2024/04/08 06:53:54;;;;;;;4.38;1.52;;;;;;;;;;10226338;29;20065;-75
2024/04/08 06:58:58;;;;;;;2.88;1.10;;;;;;;;;;10223749;28;20051;-75
2024/04/08 07:04:00;;;;;;;2.90;0.98;;;;;;;;;;10227080;28;20498;-75
2024/04/08 07:09:03;;;;;;;3.15;1.30;;;;;;;;;;10230078;28;20040;-76
2024/04/08 07:14:07;;;;;;;2.72;1.15;;;;;;;;;;10221612;29;20459;-76
2024/04/08 07:19:09;;;;;;;1.55;0.85;;;;;;;;;;10223675;28;20040;-75
2024/04/08 07:24:11;;;;;;;3.30;1.17;;;;;;;;;;10223563;29;20044;-75
2024/04/08 07:29:16;;;;;;;1.98;0.77;;;;;;;;;;10226539;28;20052;-75
2024/04/08 07:34:19;;;;;;;2.15;0.90;;;;;;;;;;10226709;28;20051;-76
2024/04/08 07:39:22;;;;;;;2.10;0.95;;;;;;;;;;10216414;29;20054;-75
2024/04/08 07:44:25;;;;;;;1.88;0.70;;;;;;;;;;10217857;28;20494;-75
2024/04/08 07:49:28;;;;;;;1.05;0.60;;;;;;;;;;10194394;28;20044;-75
2024/04/08 07:54:30;;;;;;;1.83;0.57;;;;;;;;;;10189910;29;20044;-75
2024/04/08 07:59:34;;;;;;;2.58;0.88;;;;;;;;;;10184822;29;20056;-75
2024/04/08 08:04:36;;;;;;;1.23;0.65;;;;;;;;;;10184888;29;20048;-75
2024/04/08 08:11:22;;;;;;;2.33;0.80;;;;;;;;;;10997350;26;20080;-76
2024/04/08 08:16:29;;;;;;;4.88;1.35;;;;;;;;;;10993384;26;20036;-76
2024/04/08 08:21:34;;;;;;;1.02;0.60;;;;;;;;;;11001618;26;20025;-76
2024/04/08 08:26:42;;;;;;;3.30;1.15;;;;;;;;;;10983075;26;20016;-76
2024/04/08 08:31:47;;;;;;;3.75;1.00;;;;;;;;;;10995923;26;20033;-75
2024/04/08 08:36:52;;;;;;;1.57;0.80;;;;;;;;;;10995670;26;20009;-75
2024/04/08 08:42:03;;;;;;;1.48;0.50;;;;;;;;;;10994785;26;20024;-75
2024/04/08 08:47:08;;;;;;;1.90;0.60;;;;;;;;;;10983267;26;20010;-75
2024/04/08 08:52:13;;;;;;;6.57;1.30;;;;;;;;;;10976231;26;20024;-76
2024/04/08 08:57:21;;;;;;;5.60;1.10;;;;;;;;;;10982060;26;20025;-75
2024/04/08 09:02:28;;;;;;;5.40;0.90;;;;;;;;;;10981929;26;20456;-75
2024/04/08 09:07:33;;;;;;;3.63;0.82;;;;;;;;;;10991185;26;20024;-75
2024/04/08 09:12:44;;;;;;;2.60;0.70;;;;;;;;;;10982596;26;20010;-76
2024/04/08 09:17:49;;;;;;;2.42;0.70;;;;;;;;;;10987246;26;20587;-76
2024/04/08 09:22:54;;;;;;;3.43;0.80;;;;;;;;;;10943856;26;20591;-76
2024/04/08 09:28:02;;;;;;;3.60;1.10;;;;;;;;;;10957642;26;20354;-76
2024/04/08 09:33:08;;;;;;;4.10;0.73;;;;;;;;;;10962649;26;20459;-75
2024/04/08 09:38:15;;;;;;;1.35;0.52;;;;;;;;;;10948007;26;20109;-75
2024/04/08 09:43:23;;;;;;;2.63;0.55;;;;;;;;;;10930289;27;20037;-76
2024/04/08 09:48:30;;;;;;;3.30;0.82;;;;;;;;;;10949301;26;20020;-75
2024/04/08 09:53:35;;;;;;;4.38;1.35;;;;;;;;;;10962615;26;20009;-75
2024/04/08 09:58:43;;;;;;;3.08;0.93;;;;;;;;;;10954888;26;20014;-76
2024/04/08 10:03:52;;;;;;;2.35;0.80;;;;;;;;;;10959336;26;20021;-76
2024/04/08 10:08:58;;;;;;;2.17;0.80;;;;;;;;;;10956344;26;20016;-76
2024/04/08 10:14:05;;;;;;;3.53;1.20;;;;;;;;;;10934996;26;20010;-75
2024/04/08 10:19:13;;;;;;;2.40;0.93;;;;;;;;;;10940211;26;20010;-76
2024/04/08 10:24:30;;;;;;;2.63;1.02;;;;;;;;;;10949082;26;20467;-75
2024/04/08 10:29:38;;;;;;;3.00;0.90;;;;;;;;;;10951707;26;20009;-75
2024/04/08 10:34:43;;;;;;;3.13;0.68;;;;;;;;;;10951556;26;20006;-76
2024/04/08 10:39:48;;;;;;;2.57;0.90;;;;;;;;;;10961144;26;20431;-76
2024/04/08 10:44:57;;;;;;;3.22;0.80;;;;;;;;;;10951456;26;20757;-76
2024/04/08 10:50:02;;;;;;;0.45;0.40;;;;;;;;;;10941609;27;20445;-76
2024/04/08 10:55:07;;;;;;;3.67;0.63;;;;;;;;;;10942830;27;20022;-76
2024/04/08 11:00:15;;;;;;;3.13;0.60;;;;;;;;;;10950274;26;20468;-76
2024/04/08 11:05:20;;;;;;;3.80;0.77;;;;;;;;;;10939981;26;20010;-75
2024/04/08 11:10:25;;;;;;;3.33;0.77;;;;;;;;;;10940646;26;20014;-75
2024/04/08 11:15:33;;;;;;;1.63;0.80;;;;;;;;;;10939028;26;20054;-75
2024/04/08 11:20:39;;;;;;;3.63;0.90;;;;;;;;;;10935802;27;20340;-76
2024/04/08 11:25:45;;;;;;;3.95;1.13;;;;;;;;;;10962360;26;20014;-76
2024/04/08 11:30:53;;;;;;;2.92;0.95;;;;;;;;;;10943939;26;20006;-76
2024/04/08 11:35:58;;;;;;;3.67;0.90;;;;;;;;;;10939818;27;20036;-75
2024/04/08 11:41:04;;;;;;;;;;;;;;;;;;10942225;26;20013;-76
2024/04/08 11:46:14;;;;;;;3.00;0.73;;;;;;;;;;10955208;26;19958;-76
2024/04/08 11:51:19;;;;;;;4.03;0.90;;;;;;;;;;10962792;26;20089;-75
2024/04/08 11:56:24;;;;;;;2.58;0.70;;;;;;;;;;10953468;26;20032;-76
2024/04/08 12:01:32;;;;;;;3.55;0.68;;;;;;;;;;10955883;26;20454;-76
2024/04/08 12:06:37;;;;;;;2.53;0.82;;;;;;;;;;10954953;26;20009;-75
2024/04/08 12:11:42;;;;;;;3.90;1.10;;;;;;;;;;10945126;26;20014;-76
2024/04/08 12:16:50;;;;;;;5.20;0.95;;;;;;;;;;10958755;26;20711;-76
2024/04/08 12:21:55;;;;;;;2.80;0.80;;;;;;;;;;10953674;26;20013;-75
2024/04/08 12:27:00;;;;;;;5.13;0.88;;;;;;;;;;10955599;26;20120;-76
2024/04/08 12:32:09;;;;;;;8.02;1.48;;;;;;;;;;10963777;26;20086;-76
2024/04/08 12:37:17;;;;;;;4.97;1.10;;;;;;;;;;10953527;26;20014;-76
2024/04/08 12:42:22;;;;;;;4.93;1.02;;;;;;;;;;10934954;27;20029;-76
2024/04/08 12:47:31;;;;;;;3.58;1.20;;;;;;;;;;10956167;26;20065;-76
2024/04/08 12:52:36;;;;;;;4.68;1.05;;;;;;;;;;10954221;26;20370;-76
2024/04/08 12:57:41;;;;;;;4.10;1.10;;;;;;;;;;10965606;26;20021;-75
2024/04/08 13:02:50;;;;;;;5.65;1.15;;;;;;;;;;10961097;26;20028;-75
2024/04/08 13:07:55;;;;;;;3.88;1.75;;;;;;;;;;10952425;26;20021;-74
2024/04/08 13:13:00;;;;;;;6.55;1.00;;;;;;;;;;10958048;26;20010;-75
2024/04/08 13:18:08;;;;;;;4.55;1.35;;;;;;;;;;10960584;26;20032;-75
2024/04/08 13:23:13;;;;;;;6.75;1.42;;;;;;;;;;10962315;26;20009;-75
2024/04/08 13:28:18;;;;;;;;;;;;;;;;;;10949887;26;20028;-75
2024/04/08 13:33:26;;;;;;;8.93;1.70;;;;;;;;;;10968813;26;19927;-75
2024/04/08 13:38:31;;;;;;;4.70;1.38;;;;;;;;;;10954968;26;20007;-74
2024/04/08 13:43:36;;;;;;;8.32;1.88;;;;;;;;;;10960310;26;20020;-75
2024/04/08 13:48:44;;;;;;;4.90;1.45;;;;;;;;;;10953202;26;20804;-75
2024/04/08 13:53:49;;;;;;;5.05;1.10;;;;;;;;;;10952259;27;20073;-75
2024/04/08 13:58:54;;;;;;;9.68;1.83;;;;;;;;;;10960587;26;20014;-75
2024/04/08 14:04:02;;;;;;;7.03;1.80;;;;;;;;;;10969459;26;20446;-75
2024/04/08 14:09:07;;;;;;;5.18;1.15;;;;;;;;;;10962881;26;20072;-76
2024/04/08 14:14:12;;;;;;;4.00;1.00;;;;;;;;;;10952332;26;20481;-75
2024/04/08 14:19:20;;;;;;;8.23;1.52;;;;;;;;;;10961759;27;20005;-75
2024/04/08 14:24:25;;;;;;;5.03;1.20;;;;;;;;;;10970147;26;20009;-75
2024/04/08 14:29:30;;;;;;;5.53;1.75;;;;;;;;;;10948022;26;20311;-75
2024/04/08 14:34:38;;;;;;;5.72;1.75;;;;;;;;;;10947634;26;20351;-75
2024/04/08 14:39:45;;;;;;;9.15;1.73;;;;;;;;;;10950806;26;20176;-75
2024/04/08 14:44:50;;;;;;;6.45;1.80;;;;;;;;;;10971869;26;20013;-76
2024/04/08 14:50:00;;;;;;;5.00;1.35;;;;;;;;;;10949608;26;20017;-75
2024/04/08 14:55:06;;;;;;;4.20;0.70;;;;;;;;;;10962851;26;20480;-75
2024/04/08 15:00:12;;;;;;;5.18;0.90;;;;;;;;;;10956607;26;20461;-75
2024/04/08 15:05:20;;;;;;;3.30;0.95;;;;;;;;;;10959099;26;20017;-75
2024/04/08 15:10:25;;;;;;;4.05;1.13;;;;;;;;;;10949630;26;20483;-73
2024/04/08 15:15:30;;;;;;;9.07;1.98;;;;;;;;;;10958929;26;20025;-73
2024/04/08 15:20:38;;;;;;;;;;;;;;;;;;10952877;26;20020;-73
2024/04/08 15:25:44;;;;;;;5.35;1.30;;;;;;;;;;10959545;26;19927;-73
2024/04/08 15:30:57;;;;;;;5.25;1.40;;;;;;;;;;10955911;26;20013;-73
2024/04/08 15:36:07;;;;;;;5.25;0.90;;;;;;;;;;10957652;26;20013;-73
2024/04/08 15:41:12;;;;;;;4.70;1.30;;;;;;;;;;10958215;26;20017;-73
2024/04/08 15:46:17;;;;;;;4.90;1.17;;;;;;;;;;10961060;26;20013;-73
2024/04/08 15:51:25;;;;;;;10.38;1.90;;;;;;;;;;10958698;26;20585;-73
2024/04/08 15:56:30;;;;;;;6.15;1.30;;;;;;;;;;10959181;26;20099;-73
2024/04/08 16:01:35;;;;;;;3.30;0.88;;;;;;;;;;10951022;26;20010;-73
2024/04/08 16:06:44;;;;;;;4.43;1.40;;;;;;;;;;10949003;26;20009;-73
2024/04/08 16:11:49;;;;;;;4.45;1.20;;;;;;;;;;10943679;26;20022;-73
2024/04/08 16:16:55;;;;;;;3.95;1.25;;;;;;;;;;10942215;26;20010;-73
2024/04/08 16:22:02;;;;;;;3.10;0.88;;;;;;;;;;10939203;26;20024;-73
2024/04/08 16:27:07;;;;;;;2.65;0.80;;;;;;;;;;10936817;27;20010;-73
2024/04/08 16:32:12;;;;;;;2.92;0.95;;;;;;;;;;10955573;26;20005;-73
2024/04/08 16:37:20;;;;;;;5.90;1.05;;;;;;;;;;10953257;26;20014;-73
2024/04/08 16:42:25;;;;;;;3.75;1.15;;;;;;;;;;10943060;27;20009;-73
2024/04/08 16:47:30;;;;;;;7.28;1.30;;;;;;;;;;10952940;26;20017;-73
2024/04/08 16:52:40;;;;;;;7.07;1.30;;;;;;;;;;10945378;27;20018;-73
2024/04/08 16:57:45;;;;;;;5.28;1.23;;;;;;;;;;10941957;27;20025;-73
2024/04/08 17:02:50;;;;;;;3.85;1.10;;;;;;;;;;10942233;26;20478;-73
2024/04/08 17:07:58;;;;;;;3.20;0.88;;;;;;;;;;10945435;26;20095;-73
2024/04/08 17:13:04;;;;;;;6.00;1.75;;;;;;;;;;10941493;27;20009;-73
2024/04/08 17:18:10;;;;;;;3.90;1.08;;;;;;;;;;10940649;26;20082;-73
2024/04/08 17:23:18;;;;;;;3.45;1.42;;;;;;;;;;10953671;26;20017;-73
2024/04/08 17:28:23;;;;;;;5.63;1.63;;;;;;;;;;10948793;26;20013;-73
2024/04/08 17:33:31;;;;;;;4.80;1.50;;;;;;;;;;10958913;26;20115;-73
2024/04/08 17:38:39;;;;;;;5.93;1.35;;;;;;;;;;10962114;26;20085;-73
2024/04/08 17:43:45;;;;;;;8.55;1.73;;;;;;;;;;10959387;26;20025;-73
2024/04/08 17:48:50;;;;;;;5.63;1.42;;;;;;;;;;10961031;26;20014;-73
2024/04/08 17:53:58;;;;;;;6.82;1.50;;;;;;;;;;10956027;26;20454;-73
2024/04/08 17:59:03;;;;;;;6.40;1.27;;;;;;;;;;10956098;26;20405;-73
2024/04/08 18:04:08;;;;;;;10.67;1.70;;;;;;;;;;10960775;26;20009;-73
2024/04/08 18:09:16;;;;;;;;;;;;;;;;;;10964638;26;20016;-73
2024/04/08 18:14:22;;;;;;;8.18;1.70;;;;;;;;;;10959559;26;19932;-74
2024/04/08 18:19:28;;;;;;;7.67;1.20;;;;;;;;;;10965743;27;20036;-73
2024/04/08 18:24:35;;;;;;;9.82;1.88;;;;;;;;;;10983519;26;20014;-73
2024/04/08 18:29:43;;;;;;;6.30;1.63;;;;;;;;;;10958483;26;20010;-73
2024/04/08 18:34:51;;;;;;;4.77;1.50;;;;;;;;;;10959241;26;20011;-73
2024/04/08 18:39:59;;;;;;;7.30;1.52;;;;;;;;;;10962645;26;20358;-73
2024/04/08 18:45:05;;;;;;;6.38;1.95;;;;;;;;;;10964243;26;20010;-73
2024/04/08 18:50:10;;;;;;;14.27;2.30;;;;;;;;;;10964737;26;20014;-73
2024/04/08 18:55:17;;;;;;;5.50;2.20;;;;;;;;;;10963364;27;20024;-73
2024/04/08 19:00:22;;;;;;;9.02;2.45;;;;;;;;;;10960516;26;20459;-73
2024/04/08 19:05:27;;;;;;;4.57;1.30;;;;;;;;;;10961610;27;20056;-73
2024/04/08 19:10:35;;;;;;;11.57;1.83;;;;;;;;;;10962013;26;20382;-73
2024/04/08 19:15:40;;;;;;;8.15;1.70;;;;;;;;;;10959164;26;20350;-73
2024/04/08 19:20:45;;;;;;;4.97;1.70;;;;;;;;;;10958900;26;20028;-73
2024/04/08 19:25:59;;;;;;;3.43;1.30;;;;;;;;;;10956280;27;20020;-73
2024/04/08 19:31:05;;;;;;;4.05;1.40;;;;;;;;;;10957695;26;20010;-73
2024/04/08 19:36:10;;;;;;;3.22;1.30;;;;;;;;;;10959564;26;20010;-73
2024/04/08 19:41:18;;;;;;;4.97;1.50;;;;;;;;;;10970130;26;20006;-72
2024/04/08 19:46:24;;;;;;;3.55;1.20;;;;;;;;;;10954478;26;20436;-73
2024/04/08 19:51:29;;;;;;;;;;;;;;;;;;10957536;26;20014;-73
2024/04/08 19:56:36;;;;;;;4.80;1.23;;;;;;;;;;10961118;26;19933;-73
2024/04/08 20:01:41;;;;;;;2.92;0.90;;;;;;;;;;10965372;26;20410;-73
2024/04/08 20:06:46;;;;;;;4.27;1.30;;;;;;;;;;10956310;26;20022;-72
2024/04/08 20:11:55;;;;;;;5.00;1.27;;;;;;;;;;10957336;26;20010;-72
2024/04/08 20:17:00;;;;;;;3.45;1.25;;;;;;;;;;10969001;26;20014;-72
2024/04/08 20:22:05;;;;;;;8.45;1.58;;;;;;;;;;10954563;26;20470;-72
2024/04/08 20:27:12;;;;;;;4.35;1.35;;;;;;;;;;10954016;26;20014;-72
2024/04/08 20:32:17;;;;;;;5.40;1.27;;;;;;;;;;10962643;26;20496;-73
2024/04/08 20:37:22;;;;;;;5.70;1.05;;;;;;;;;;10958112;26;20094;-72
2024/04/08 20:42:30;;;;;;;5.32;1.30;;;;;;;;;;10961051;26;20483;-72
2024/04/08 20:47:35;;;;;;;5.72;1.60;;;;;;;;;;10961250;26;20057;-73
2024/04/08 20:52:40;;;;;;;6.43;1.48;;;;;;;;;;10956074;26;20011;-73
2024/04/08 20:57:48;;;;;;;4.38;1.27;;;;;;;;;;10960605;26;20680;-72
2024/04/08 21:02:53;;;;;;;5.30;1.20;;;;;;;;;;10965448;26;20025;-73
2024/04/08 21:07:58;;;;;;;5.83;1.30;;;;;;;;;;10962404;26;20466;-73
2024/04/08 21:13:06;;;;;;;8.77;1.65;;;;;;;;;;10952916;26;20009;-73
2024/04/08 21:18:11;;;;;;;7.72;1.38;;;;;;;;;;10950644;26;20013;-72
2024/04/08 21:23:17;;;;;;;10.40;1.77;;;;;;;;;;10959287;26;20014;-73
2024/04/08 21:28:24;;;;;;;3.67;1.00;;;;;;;;;;10962706;26;20045;-73
2024/04/08 21:33:29;;;;;;;5.18;1.10;;;;;;;;;;10966487;26;20020;-73
2024/04/08 21:38:35;;;;;;;5.53;1.25;;;;;;;;;;10959484;26;20006;-73
2024/04/08 21:43:43;;;;;;;7.28;1.55;;;;;;;;;;10958607;26;20026;-72
2024/04/08 21:48:48;;;;;;;3.58;1.23;;;;;;;;;;10972607;26;20017;-74
2024/04/08 21:53:53;;;;;;;2.63;1.00;;;;;;;;;;10961301;26;20084;-73
2024/04/08 21:59:02;;;;;;;3.70;1.05;;;;;;;;;;10770221;22;20008;-74
2024/04/08 22:04:07;;;;;;;6.80;1.40;;;;;;;;;;10678435;27;20371;-74
2024/04/08 22:09:12;;;;;;;7.07;1.40;;;;;;;;;;10687784;27;20036;-74
2024/04/08 22:14:19;;;;;;;7.75;1.60;;;;;;;;;;10681988;27;20020;-73
2024/04/08 22:19:25;;;;;;;2.67;1.00;;;;;;;;;;10685349;27;20027;-74
2024/04/08 22:24:30;;;;;;;11.23;1.85;;;;;;;;;;10672439;27;20048;-74
2024/04/08 22:29:37;;;;;;;9.85;2.08;;;;;;;;;;10675228;27;20009;-73
2024/04/08 22:34:42;;;;;;;8.70;1.67;;;;;;;;;;10683289;27;20379;-74
2024/04/08 22:39:47;;;;;;;6.50;1.90;;;;;;;;;;10681624;27;20035;-74
2024/04/08 22:44:55;;;;;;;5.93;1.52;;;;;;;;;;10683879;27;20013;-74
2024/04/08 22:50:00;;;;;;;3.85;0.95;;;;;;;;;;10694884;27;20358;-74
2024/04/08 22:55:09;;;;;;;6.95;1.63;;;;;;;;;;10689302;27;20906;-74
2024/04/08 23:00:18;;;;;;;7.13;1.52;;;;;;;;;;10687297;27;20012;-74
2024/04/08 23:05:23;;;;;;;5.95;1.60;;;;;;;;;;10671961;27;20044;-74
2024/04/08 23:10:28;;;;;;;5.93;2.03;;;;;;;;;;10679394;27;20045;-74
2024/04/08 23:15:37;;;;;;;4.70;1.20;;;;;;;;;;10694410;27;20501;-74
2024/04/08 23:20:42;;;;;;;5.13;1.50;;;;;;;;;;10681823;27;20089;-74
2024/04/08 23:25:47;;;;;;;4.28;1.35;;;;;;;;;;10684404;27;20023;-74
2024/04/08 23:30:55;;;;;;;3.95;1.38;;;;;;;;;;10686215;27;20024;-73
2024/04/08 23:36:00;;;;;;;7.35;1.38;;;;;;;;;;10683084;27;20008;-74
2024/04/08 23:41:05;;;;;;;7.60;1.60;;;;;;;;;;10679905;27;20027;-74
2024/04/08 23:46:14;;;;;;;9.10;1.37;;;;;;;;;;10672735;27;20044;-74
2024/04/08 23:51:19;;;;;;;7.72;1.80;;;;;;;;;;10687005;27;20016;-74
2024/04/08 23:56:24;;;;;;;6.35;1.38;;;;;;;;;;10675820;27;20035;-74
